createdAt,value
2019-03-27T00:00:40.194Z,9.90
2019-03-27T00:04:59.287Z,9.90
2019-03-27T00:09:18.207Z,10.00
2019-03-27T00:13:37.253Z,10.00
2019-03-27T00:17:56.369Z,10.00
2019-03-27T00:22:16.476Z,9.90
2019-03-27T00:26:35.554Z,10.00
2019-03-27T00:30:54.573Z,9.90
2019-03-27T00:35:13.528Z,9.90
2019-03-27T00:39:32.560Z,9.90
2019-03-27T00:43:52.960Z,9.80
2019-03-27T00:48:12.243Z,9.90
2019-03-27T00:52:31.280Z,9.90
2019-03-27T00:56:51.065Z,9.90
2019-03-27T01:01:16.975Z,9.90
2019-03-27T01:05:35.864Z,9.90
2019-03-27T01:09:54.844Z,9.90
2019-03-27T01:14:13.884Z,10.00
2019-03-27T01:18:32.874Z,10.00
2019-03-27T01:22:52.566Z,9.90
2019-03-27T01:27:11.537Z,10.00
2019-03-27T01:31:30.557Z,10.00
2019-03-27T01:35:49.564Z,10.00
2019-03-27T01:40:09.664Z,10.10
2019-03-27T01:44:30.343Z,10.10
2019-03-27T01:48:49.280Z,10.10
2019-03-27T01:53:08.421Z,10.10
2019-03-27T01:57:27.433Z,10.10
2019-03-27T02:01:48.328Z,10.10
2019-03-27T02:06:07.422Z,10.10
2019-03-27T02:10:26.331Z,10.10
2019-03-27T02:14:46.125Z,10.00
2019-03-27T02:19:04.913Z,10.00
2019-03-27T02:23:23.836Z,10.00
2019-03-27T02:27:43.172Z,10.00
2019-03-27T02:32:02.289Z,10.00
2019-03-27T02:36:21.967Z,10.00
2019-03-27T02:40:41.478Z,9.90
2019-03-27T02:45:00.536Z,9.90
2019-03-27T02:49:20.050Z,9.90
2019-03-27T02:53:39.113Z,9.90
2019-03-27T02:57:59.430Z,10.00
2019-03-27T03:02:18.491Z,10.00
2019-03-27T03:06:37.557Z,10.00
2019-03-27T03:10:57.064Z,10.00
2019-03-27T03:15:22.494Z,10.00
2019-03-27T03:19:41.333Z,10.00
2019-03-27T03:24:00.345Z,10.10
2019-03-27T03:28:20.525Z,10.10
2019-03-27T03:32:39.928Z,10.10
2019-03-27T03:37:00.015Z,10.10
2019-03-27T03:41:19.162Z,10.10
2019-03-27T03:45:39.091Z,10.10
2019-03-27T03:49:58.972Z,10.00
2019-03-27T03:54:18.016Z,10.00
2019-03-27T03:58:40.118Z,10.00
2019-03-27T04:03:00.461Z,10.00
2019-03-27T04:07:19.455Z,10.00
2019-03-27T04:11:38.434Z,9.90
2019-03-27T04:15:57.378Z,10.00
2019-03-27T04:20:16.615Z,9.90
2019-03-27T04:24:37.422Z,10.00
2019-03-27T04:28:56.693Z,9.90
2019-03-27T04:33:15.631Z,9.90
2019-03-27T04:37:34.697Z,9.90
2019-03-27T04:41:53.616Z,9.90
2019-03-27T04:46:12.540Z,9.80
2019-03-27T04:50:31.803Z,9.80
2019-03-27T04:54:50.801Z,9.70
2019-03-27T04:59:10.232Z,9.70
2019-03-27T05:03:30.709Z,9.70
2019-03-27T05:07:51.003Z,9.60
2019-03-27T05:12:11.509Z,9.70
2019-03-27T05:16:30.612Z,9.60
2019-03-27T05:20:50.121Z,9.60
2019-03-27T05:25:09.517Z,9.60
2019-03-27T05:29:28.992Z,9.70
2019-03-27T05:33:48.238Z,9.70
2019-03-27T05:38:08.348Z,9.70
2019-03-27T05:42:29.113Z,9.80
2019-03-27T05:46:48.505Z,9.80
2019-03-27T05:51:08.526Z,9.80
2019-03-27T05:55:27.988Z,9.80
2019-03-27T05:59:49.846Z,9.90
2019-03-27T06:04:08.710Z,9.90
2019-03-27T06:08:27.689Z,9.90
2019-03-27T06:12:48.049Z,10.00
2019-03-27T06:17:07.072Z,10.00
2019-03-27T06:21:26.116Z,10.00
2019-03-27T06:25:45.542Z,10.10
2019-03-27T06:30:05.045Z,10.10
2019-03-27T06:34:24.801Z,10.10
2019-03-27T06:38:43.771Z,10.20
2019-03-27T06:43:03.847Z,10.20
2019-03-27T06:47:23.109Z,10.30
2019-03-27T06:51:42.106Z,10.30
2019-03-27T06:56:01.653Z,10.40
2019-03-27T07:00:43.830Z,10.50
2019-03-27T07:05:02.771Z,10.60
2019-03-27T07:09:21.886Z,10.70
2019-03-27T07:13:40.826Z,10.80
2019-03-27T07:17:59.999Z,10.90
2019-03-27T07:22:19.213Z,11.00
2019-03-27T07:26:38.277Z,11.10
2019-03-27T07:30:57.762Z,11.20
2019-03-27T07:35:17.224Z,11.30
2019-03-27T07:39:36.590Z,11.30
2019-03-27T07:43:55.600Z,11.40
2019-03-27T07:48:14.585Z,11.40
2019-03-27T07:52:33.770Z,11.50
2019-03-27T07:56:52.783Z,11.50
2019-03-27T08:01:11.848Z,11.60
2019-03-27T08:05:30.887Z,11.70
2019-03-27T08:09:50.901Z,11.70
2019-03-27T08:14:10.720Z,11.70
2019-03-27T08:18:30.863Z,11.80
2019-03-27T08:22:49.723Z,11.80
2019-03-27T08:27:10.187Z,12.00
2019-03-27T08:31:29.646Z,12.20
2019-03-27T08:35:49.042Z,12.50
2019-03-27T08:40:08.992Z,12.80
2019-03-27T08:44:28.436Z,13.30
2019-03-27T08:48:48.341Z,14.30
2019-03-27T08:53:07.284Z,15.50
2019-03-27T08:57:26.236Z,16.80
2019-03-27T09:01:45.276Z,17.60
2019-03-27T09:06:04.489Z,18.10
2019-03-27T09:10:23.408Z,18.20
2019-03-27T09:14:43.662Z,18.00
2019-03-27T09:19:04.181Z,17.70
2019-03-27T09:23:23.336Z,17.30
2019-03-27T09:27:42.179Z,17.00
2019-03-27T09:32:01.132Z,16.80
2019-03-27T09:36:20.899Z,17.00
2019-03-27T09:40:40.077Z,17.00
2019-03-27T09:44:59.016Z,16.80
2019-03-27T09:49:18.080Z,16.50
2019-03-27T09:53:38.460Z,16.20
2019-03-27T09:57:57.439Z,16.10
2019-03-27T10:02:16.417Z,16.50
2019-03-27T10:06:36.354Z,17.00
2019-03-27T10:10:55.603Z,17.60
2019-03-27T10:15:14.849Z,18.40
2019-03-27T10:19:33.836Z,18.90
2019-03-27T10:23:53.404Z,19.40
2019-03-27T10:28:14.055Z,20.00
2019-03-27T10:32:33.037Z,20.70
2019-03-27T10:36:52.326Z,21.50
2019-03-27T10:41:11.624Z,22.20
2019-03-27T10:45:32.129Z,22.70
2019-03-27T10:49:51.280Z,22.70
2019-03-27T10:54:10.789Z,22.30
2019-03-27T10:58:31.086Z,21.90
2019-03-27T11:02:49.933Z,21.90
2019-03-27T11:07:09.411Z,22.20
2019-03-27T11:11:34.245Z,22.60
2019-03-27T11:15:54.380Z,22.90
2019-03-27T11:20:14.903Z,23.10
2019-03-27T11:24:34.189Z,23.60
2019-03-27T11:28:53.133Z,24.00
2019-03-27T11:33:12.077Z,24.50
2019-03-27T11:37:31.418Z,24.80
2019-03-27T11:41:50.807Z,25.10
2019-03-27T11:46:10.653Z,25.30
2019-03-27T11:50:43.727Z,25.60
2019-03-27T11:54:52.607Z,25.70
2019-03-27T11:59:11.732Z,25.40
2019-03-27T12:03:32.118Z,24.80
2019-03-27T12:07:51.224Z,24.20
2019-03-27T12:12:10.600Z,23.80
2019-03-27T12:16:29.633Z,23.50
2019-03-27T12:20:58.821Z,23.00
2019-03-27T12:25:11.394Z,22.20
2019-03-27T12:29:30.582Z,21.40
2019-03-27T12:33:50.498Z,20.70
2019-03-27T12:38:09.748Z,20.10
2019-03-27T12:42:30.059Z,19.60
2019-03-27T12:46:51.849Z,19.10
2019-03-27T12:51:13.219Z,18.70
2019-03-27T12:55:31.917Z,18.30
2019-03-27T12:59:50.851Z,17.90
2019-03-27T13:04:11.068Z,17.50
2019-03-27T13:08:30.523Z,17.20
2019-03-27T13:12:50.025Z,17.00
2019-03-27T13:17:08.937Z,16.80
2019-03-27T13:21:29.543Z,16.70
2019-03-27T13:25:49.921Z,16.60
2019-03-27T13:30:10.162Z,16.50
2019-03-27T13:34:29.452Z,16.50
2019-03-27T13:38:48.790Z,16.50
2019-03-27T13:43:08.601Z,16.50
2019-03-27T13:47:27.801Z,16.60
2019-03-27T13:51:46.815Z,16.80
2019-03-27T13:56:07.000Z,16.90
2019-03-27T14:00:26.531Z,17.00
2019-03-27T14:04:45.538Z,17.10
2019-03-27T14:09:06.300Z,17.10
2019-03-27T14:13:27.312Z,17.20
2019-03-27T14:17:46.515Z,17.30
2019-03-27T14:22:06.381Z,17.30
2019-03-27T14:26:26.044Z,17.30
2019-03-27T14:31:04.399Z,17.30
2019-03-27T14:35:23.267Z,17.20
2019-03-27T14:39:42.384Z,17.00
2019-03-27T14:44:02.128Z,16.90
2019-03-27T14:48:22.197Z,16.80
2019-03-27T14:52:41.291Z,16.60
2019-03-27T14:57:00.407Z,16.50
2019-03-27T15:01:19.463Z,16.50
2019-03-27T15:05:38.828Z,16.40
2019-03-27T15:09:57.883Z,16.30
2019-03-27T15:14:16.881Z,16.20
2019-03-27T15:18:36.017Z,16.10
2019-03-27T15:22:55.057Z,16.10
2019-03-27T15:27:14.090Z,16.00
2019-03-27T15:31:34.511Z,16.00
2019-03-27T15:35:55.721Z,15.90
2019-03-27T15:40:16.053Z,15.80
2019-03-27T15:44:34.990Z,15.70
2019-03-27T15:48:54.030Z,15.60
2019-03-27T15:53:13.353Z,15.60
2019-03-27T15:57:32.379Z,15.60
2019-03-27T16:01:51.504Z,15.50
2019-03-27T16:06:11.102Z,15.50
2019-03-27T16:10:30.342Z,15.40
2019-03-27T16:14:50.280Z,15.30
2019-03-27T16:19:10.174Z,15.30
2019-03-27T16:23:32.300Z,15.20
2019-03-27T16:27:51.473Z,15.20
2019-03-27T16:32:12.664Z,15.10
2019-03-27T16:36:34.886Z,15.10
2019-03-27T16:40:56.000Z,15.10
2019-03-27T16:45:18.052Z,15.00
2019-03-27T16:49:39.282Z,15.00
2019-03-27T16:54:01.402Z,14.90
2019-03-27T16:58:21.749Z,14.90
2019-03-27T17:02:42.011Z,14.80
2019-03-27T17:07:00.998Z,14.80
2019-03-27T17:11:22.651Z,14.80
2019-03-27T17:15:41.888Z,14.80
2019-03-27T17:20:01.219Z,14.80
2019-03-27T17:24:23.909Z,14.80
2019-03-27T17:28:44.971Z,14.80
2019-03-27T17:33:09.235Z,14.80
2019-03-27T17:37:33.167Z,14.80
2019-03-27T17:41:54.622Z,14.70
2019-03-27T17:46:15.255Z,14.60
2019-03-27T17:50:34.815Z,14.60
2019-03-27T17:54:55.782Z,14.50
2019-03-27T17:59:19.698Z,14.50
2019-03-27T18:03:39.932Z,14.40
2019-03-27T18:08:01.152Z,14.30
2019-03-27T18:12:21.904Z,14.20
2019-03-27T18:16:42.312Z,14.10
2019-03-27T18:21:01.652Z,14.10
2019-03-27T18:25:21.365Z,14.00
2019-03-27T18:29:42.995Z,14.00
2019-03-27T18:34:02.757Z,13.90
2019-03-27T18:38:22.189Z,13.80
2019-03-27T18:42:41.584Z,13.80
2019-03-27T18:47:01.253Z,13.80
2019-03-27T18:51:21.086Z,13.70
2019-03-27T18:55:40.654Z,13.60
2019-03-27T19:00:00.562Z,13.50
2019-03-27T19:04:20.387Z,13.50
2019-03-27T19:08:41.004Z,13.50
2019-03-27T19:12:59.946Z,13.40
2019-03-27T19:17:19.393Z,13.30
2019-03-27T19:21:39.825Z,13.20
2019-03-27T19:26:01.710Z,13.20
2019-03-27T19:30:21.901Z,13.10
2019-03-27T19:34:46.046Z,13.10
2019-03-27T19:39:11.662Z,13.00
2019-03-27T19:43:36.646Z,13.00
2019-03-27T19:47:57.362Z,12.90
2019-03-27T19:52:16.727Z,12.80
2019-03-27T19:56:37.141Z,12.80
2019-03-27T20:00:56.598Z,12.70
2019-03-27T20:05:15.819Z,12.60
2019-03-27T20:09:35.245Z,12.50
2019-03-27T20:13:54.606Z,12.50
2019-03-27T20:18:14.608Z,12.40
2019-03-27T20:22:34.065Z,12.30
2019-03-27T20:26:53.251Z,12.20
2019-03-27T20:31:12.660Z,12.10
2019-03-27T20:35:32.279Z,12.00
2019-03-27T20:39:52.409Z,12.00
2019-03-27T20:44:13.100Z,11.90
2019-03-27T20:48:32.098Z,11.90
2019-03-27T20:53:03.429Z,11.80
2019-03-27T20:57:21.885Z,11.80
2019-03-27T21:01:41.560Z,11.80
2019-03-27T21:06:01.312Z,11.70
2019-03-27T21:10:21.045Z,11.60
2019-03-27T21:14:43.344Z,11.60
2019-03-27T21:19:02.664Z,11.50
2019-03-27T21:23:21.760Z,11.50
2019-03-27T21:27:41.034Z,11.40
2019-03-27T21:32:00.494Z,11.30
2019-03-27T21:36:19.666Z,11.30
2019-03-27T21:40:40.852Z,11.20
2019-03-27T21:45:00.505Z,11.10
2019-03-27T21:49:19.931Z,11.00
2019-03-27T21:53:40.312Z,11.00
2019-03-27T21:58:01.406Z,10.90
2019-03-27T22:02:21.432Z,10.80
2019-03-27T22:06:40.717Z,10.70
2019-03-27T22:10:59.988Z,10.60
2019-03-27T22:15:20.591Z,10.50
2019-03-27T22:19:39.855Z,10.40
2019-03-27T22:23:59.057Z,10.40
2019-03-27T22:28:19.027Z,10.40
2019-03-27T22:32:39.171Z,10.40
2019-03-27T22:36:58.188Z,10.30
2019-03-27T22:41:17.139Z,10.20
2019-03-27T22:45:36.303Z,10.10
2019-03-27T22:49:55.629Z,10.00
2019-03-27T22:54:15.369Z,9.90
2019-03-27T22:58:34.761Z,9.90
2019-03-27T23:02:54.845Z,9.80
2019-03-27T23:07:14.084Z,9.80
2019-03-27T23:11:33.255Z,9.70
2019-03-27T23:15:52.205Z,9.70
2019-03-27T23:20:11.662Z,9.60
2019-03-27T23:24:31.158Z,9.50
2019-03-27T23:28:50.767Z,9.50
2019-03-27T23:33:10.533Z,9.40
2019-03-27T23:37:30.047Z,9.30
2019-03-27T23:41:49.826Z,9.30
2019-03-27T23:46:09.307Z,9.20
2019-03-27T23:50:28.830Z,9.20
2019-03-27T23:54:47.746Z,9.10
2019-03-27T23:59:07.245Z,9.00
